createdAt,value
2022-10-13T00:01:17.763Z,62.50
2022-10-13T00:06:26.347Z,62.60
2022-10-13T00:11:32.403Z,62.51
2022-10-13T00:16:38.193Z,62.75
2022-10-13T00:21:43.706Z,62.91
2022-10-13T00:26:52.456Z,62.82
2022-10-13T00:31:58.053Z,62.88
2022-10-13T00:37:03.567Z,63.04
2022-10-13T00:42:16.453Z,63.30
2022-10-13T00:47:22.948Z,63.49
2022-10-13T00:52:29.275Z,63.51
2022-10-13T00:57:35.790Z,63.70
2022-10-13T01:02:41.317Z,63.94
2022-10-13T01:07:49.212Z,64.36
2022-10-13T01:12:57.636Z,64.65
2022-10-13T01:18:14.729Z,64.55
2022-10-13T01:23:39.874Z,64.72
2022-10-13T01:29:09.562Z,64.81
2022-10-13T01:34:21.543Z,65.16
2022-10-13T01:39:29.982Z,65.40
2022-10-13T01:44:38.416Z,65.72
2022-10-13T01:49:45.644Z,65.74
2022-10-13T01:54:53.364Z,66.04
2022-10-13T02:00:04.110Z,66.03
2022-10-13T02:05:19.824Z,66.46
2022-10-13T02:10:37.132Z,66.48
2022-10-13T02:15:48.952Z,66.29
2022-10-13T02:20:56.061Z,66.48
2022-10-13T02:26:01.606Z,66.43
2022-10-13T02:31:08.729Z,66.66
2022-10-13T02:36:14.449Z,66.79
2022-10-13T02:41:19.889Z,66.92
2022-10-13T02:46:25.868Z,67.34
2022-10-13T02:51:34.086Z,67.58
2022-10-13T02:56:38.514Z,67.62
2022-10-13T03:01:44.794Z,67.92
2022-10-13T03:06:50.521Z,68.01
2022-10-13T03:11:56.244Z,68.25
2022-10-13T03:17:01.962Z,68.53
2022-10-13T03:22:07.487Z,68.72
2022-10-13T03:27:13.036Z,68.88
2022-10-13T03:32:19.011Z,68.88
2022-10-13T03:37:24.607Z,68.99
2022-10-13T03:42:30.047Z,69.18
2022-10-13T03:47:37.448Z,69.04
2022-10-13T03:52:43.049Z,69.36
2022-10-13T03:57:48.565Z,69.59
2022-10-13T04:02:53.957Z,69.39
2022-10-13T04:07:59.419Z,69.71
2022-10-13T04:13:05.977Z,69.84
2022-10-13T04:18:12.864Z,70.18
2022-10-13T04:23:18.861Z,70.10
2022-10-13T04:28:25.648Z,70.67
2022-10-13T04:33:31.534Z,70.65
2022-10-13T04:38:37.461Z,70.84
2022-10-13T04:43:43.370Z,70.80
2022-10-13T04:48:49.666Z,71.00
2022-10-13T04:54:01.255Z,70.93
2022-10-13T04:59:06.759Z,70.44
2022-10-13T05:04:12.498Z,71.11
2022-10-13T05:09:18.099Z,71.58
2022-10-13T05:14:24.491Z,71.64
2022-10-13T05:19:30.163Z,71.66
2022-10-13T05:24:38.748Z,71.60
2022-10-13T05:29:44.198Z,71.84
2022-10-13T05:34:50.196Z,72.15
2022-10-13T05:39:55.809Z,71.74
2022-10-13T05:45:01.186Z,71.94
2022-10-13T05:50:07.650Z,72.43
2022-10-13T05:55:16.068Z,72.66
2022-10-13T06:00:21.844Z,73.27
2022-10-13T06:05:28.631Z,73.00
2022-10-13T06:10:34.151Z,73.48
2022-10-13T06:15:39.658Z,73.41
2022-10-13T06:20:45.783Z,73.66
2022-10-13T06:25:54.865Z,74.07
2022-10-13T06:31:00.330Z,73.94
2022-10-13T06:36:07.107Z,74.52
2022-10-13T06:41:14.405Z,75.11
2022-10-13T06:46:20.653Z,75.31
2022-10-13T06:51:26.421Z,76.10
2022-10-13T06:56:31.955Z,76.03
2022-10-13T07:01:41.532Z,75.62
2022-10-13T07:06:46.304Z,75.44
2022-10-13T07:11:51.751Z,75.51
2022-10-13T07:16:57.347Z,75.12
2022-10-13T07:22:02.820Z,74.57
2022-10-13T07:27:08.353Z,74.32
2022-10-13T07:32:13.896Z,73.76
2022-10-13T07:37:19.658Z,74.36
2022-10-13T07:42:25.415Z,74.34
2022-10-13T07:47:31.025Z,74.38
2022-10-13T07:52:39.364Z,73.33
2022-10-13T07:57:46.286Z,73.93
2022-10-13T08:02:52.334Z,74.11
2022-10-13T08:07:58.588Z,74.36
2022-10-13T08:13:04.175Z,74.38
2022-10-13T08:18:11.165Z,75.04
2022-10-13T08:23:16.718Z,74.74
2022-10-13T08:28:26.857Z,73.61
2022-10-13T08:33:32.403Z,73.68
2022-10-13T08:38:37.828Z,73.07
2022-10-13T08:44:13.401Z,72.88
2022-10-13T08:48:52.205Z,72.30
2022-10-13T08:53:59.897Z,71.79
2022-10-13T08:59:06.791Z,71.25
2022-10-13T09:04:36.403Z,70.69
2022-10-13T09:09:42.088Z,70.05
2022-10-13T09:15:09.821Z,70.58
2022-10-13T09:20:21.127Z,70.72
2022-10-13T09:25:26.596Z,69.52
2022-10-13T09:30:38.441Z,69.95
2022-10-13T09:35:46.851Z,69.23
2022-10-13T09:41:09.781Z,68.73
2022-10-13T09:46:24.051Z,68.79
2022-10-13T09:51:35.195Z,68.47
2022-10-13T09:56:45.330Z,67.63
2022-10-13T10:01:54.261Z,68.08
2022-10-13T10:06:59.820Z,67.55
2022-10-13T10:12:07.743Z,66.94
2022-10-13T10:17:19.786Z,66.54
2022-10-13T10:22:51.036Z,65.81
2022-10-13T10:28:16.329Z,65.48
2022-10-13T10:33:37.025Z,65.42
2022-10-13T10:39:04.634Z,65.17
2022-10-13T10:44:23.889Z,63.78
2022-10-13T10:49:35.455Z,64.32
2022-10-13T10:54:49.318Z,64.24
2022-10-13T10:59:58.050Z,63.51
2022-10-13T11:05:06.314Z,63.67
2022-10-13T11:10:22.563Z,63.28
2022-10-13T11:15:33.720Z,63.00
2022-10-13T11:20:47.954Z,61.88
2022-10-13T11:25:55.073Z,62.54
2022-10-13T11:31:09.620Z,61.46
2022-10-13T11:36:40.358Z,61.47
2022-10-13T11:41:51.578Z,60.59
2022-10-13T11:47:18.572Z,61.49
2022-10-13T11:52:45.558Z,61.51
2022-10-13T11:57:50.935Z,60.94
2022-10-13T12:02:56.953Z,60.84
2022-10-13T12:08:05.073Z,61.12
2022-10-13T12:13:22.607Z,60.85
2022-10-13T12:18:38.254Z,60.49
2022-10-13T12:23:44.356Z,60.55
2022-10-13T12:29:04.274Z,60.58
2022-10-13T12:34:18.264Z,60.41
2022-10-13T12:39:25.478Z,60.44
2022-10-13T12:44:33.073Z,60.31
2022-10-13T12:49:39.149Z,59.96
2022-10-13T12:54:50.296Z,60.21
2022-10-13T12:59:58.451Z,59.98
2022-10-13T13:05:04.176Z,59.83
2022-10-13T13:10:18.234Z,60.07
2022-10-13T13:15:33.106Z,59.58
2022-10-13T13:20:38.616Z,59.53
2022-10-13T13:25:44.219Z,59.87
2022-10-13T13:30:49.681Z,59.99
2022-10-13T13:35:55.523Z,59.98
2022-10-13T13:41:03.855Z,60.16
2022-10-13T13:46:10.881Z,60.11
2022-10-13T13:51:17.297Z,60.06
2022-10-13T13:56:23.358Z,60.13
2022-10-13T14:01:29.976Z,60.11
2022-10-13T14:06:36.670Z,60.01
2022-10-13T14:11:42.228Z,60.19
2022-10-13T14:16:48.029Z,60.19
2022-10-13T14:21:53.484Z,60.28
2022-10-13T14:26:59.081Z,60.26
2022-10-13T14:32:05.586Z,60.24
2022-10-13T14:37:11.154Z,60.28
2022-10-13T14:42:16.603Z,60.16
2022-10-13T14:47:22.722Z,60.34
2022-10-13T14:52:28.438Z,60.38
2022-10-13T14:57:33.821Z,60.47
2022-10-13T15:02:39.406Z,60.57
2022-10-13T15:07:44.866Z,60.66
2022-10-13T15:12:50.362Z,60.68
2022-10-13T15:17:56.293Z,58.98
2022-10-13T15:23:01.842Z,60.36
2022-10-13T15:28:07.691Z,60.82
2022-10-13T15:33:13.483Z,61.10
2022-10-13T15:38:20.865Z,61.43
2022-10-13T15:43:26.470Z,61.63
2022-10-13T15:48:33.787Z,61.85
2022-10-13T15:53:39.604Z,62.09
2022-10-13T15:58:45.713Z,62.26
2022-10-13T16:03:55.355Z,62.40
2022-10-13T16:09:01.869Z,62.57
2022-10-13T16:14:07.338Z,62.68
2022-10-13T16:19:12.819Z,62.99
2022-10-13T16:24:18.824Z,63.37
2022-10-13T16:29:24.832Z,63.59
2022-10-13T16:34:30.547Z,63.78
2022-10-13T16:39:41.332Z,64.13
2022-10-13T16:44:43.199Z,64.35
2022-10-13T16:49:48.672Z,64.66
2022-10-13T16:54:54.409Z,64.90
2022-10-13T17:00:00.133Z,65.12
2022-10-13T17:05:06.985Z,65.39
2022-10-13T17:10:12.459Z,65.59
2022-10-13T17:15:19.188Z,65.58
2022-10-13T17:20:24.739Z,65.94
2022-10-13T17:25:30.143Z,66.12
2022-10-13T17:30:35.740Z,66.28
2022-10-13T17:35:41.361Z,66.58
2022-10-13T17:40:46.881Z,66.73
2022-10-13T17:45:52.491Z,66.88
2022-10-13T17:51:00.940Z,67.14
2022-10-13T17:56:09.267Z,67.37
2022-10-13T18:01:18.842Z,67.42
2022-10-13T18:06:26.316Z,67.65
2022-10-13T18:11:32.437Z,67.65
2022-10-13T18:16:38.541Z,67.80
2022-10-13T18:21:44.096Z,67.96
2022-10-13T18:26:49.631Z,68.14
2022-10-13T18:31:56.641Z,68.36
2022-10-13T18:37:02.111Z,68.82
2022-10-13T18:42:07.647Z,69.06
2022-10-13T18:47:14.433Z,69.25
2022-10-13T18:52:20.056Z,69.35
2022-10-13T18:57:25.598Z,69.63
2022-10-13T19:02:31.289Z,69.74
2022-10-13T19:07:39.034Z,69.77
2022-10-13T19:12:43.829Z,70.02
2022-10-13T19:17:49.624Z,70.35
2022-10-13T19:22:55.160Z,70.40
2022-10-13T19:28:01.154Z,70.45
2022-10-13T19:33:08.148Z,70.51
2022-10-13T19:38:38.356Z,70.73
2022-10-13T19:43:43.897Z,70.78
2022-10-13T19:48:49.690Z,71.15
2022-10-13T19:53:58.334Z,71.52
2022-10-13T19:59:05.064Z,71.64
2022-10-13T20:04:11.285Z,71.65
2022-10-13T20:09:21.971Z,71.96
2022-10-13T20:14:28.568Z,72.25
2022-10-13T20:19:34.233Z,72.49
2022-10-13T20:24:40.910Z,72.85
2022-10-13T20:29:48.084Z,72.87
2022-10-13T20:34:55.997Z,73.10
2022-10-13T20:40:01.702Z,73.26
2022-10-13T20:45:08.052Z,73.41
2022-10-13T20:50:15.895Z,73.37
2022-10-13T20:55:21.432Z,73.55
2022-10-13T21:00:27.192Z,73.64
2022-10-13T21:05:34.035Z,73.90
2022-10-13T21:10:39.856Z,74.18
2022-10-13T21:15:47.122Z,74.37
2022-10-13T21:20:54.355Z,74.61
2022-10-13T21:26:02.805Z,74.76
2022-10-13T21:31:10.967Z,74.62
2022-10-13T21:36:19.694Z,75.00
2022-10-13T21:41:25.649Z,75.17
2022-10-13T21:46:33.165Z,75.53
2022-10-13T21:51:40.673Z,75.69
2022-10-13T21:56:46.173Z,75.75
2022-10-13T22:01:51.578Z,75.95
2022-10-13T22:06:56.973Z,76.01
2022-10-13T22:12:03.250Z,76.07
2022-10-13T22:17:08.871Z,76.14
2022-10-13T22:22:16.084Z,76.30
2022-10-13T22:27:21.953Z,76.04
2022-10-13T22:32:27.762Z,74.89
2022-10-13T22:37:33.234Z,74.64
2022-10-13T22:42:38.622Z,74.69
2022-10-13T22:47:44.258Z,74.47
2022-10-13T22:52:49.957Z,74.41
2022-10-13T22:57:55.332Z,74.39
2022-10-13T23:03:00.803Z,74.60
2022-10-13T23:08:06.452Z,75.60
2022-10-13T23:13:11.911Z,76.03
2022-10-13T23:18:17.748Z,76.31
2022-10-13T23:23:23.261Z,76.25
2022-10-13T23:28:28.788Z,76.32
2022-10-13T23:33:35.706Z,76.31
2022-10-13T23:38:41.156Z,76.35
2022-10-13T23:43:46.849Z,76.62
2022-10-13T23:48:52.777Z,76.57
2022-10-13T23:53:59.355Z,76.93
2022-10-13T23:59:05.268Z,77.07
